createdAt,value
2019-02-20T00:01:43.978Z,9.45
2019-02-20T00:04:11.468Z,8.93
2019-02-20T00:06:38.878Z,7.95
2019-02-20T00:09:06.997Z,7.85
2019-02-20T00:11:34.428Z,8.23
2019-02-20T00:14:01.871Z,6.47
2019-02-20T00:16:29.280Z,7.47
2019-02-20T00:18:56.702Z,9.63
2019-02-20T00:21:24.102Z,8.45
2019-02-20T00:23:51.565Z,8.73
2019-02-20T00:26:20.214Z,7.50
2019-02-20T00:28:47.601Z,7.00
2019-02-20T00:31:15.022Z,7.57
2019-02-20T00:33:42.435Z,6.35
2019-02-20T00:36:09.947Z,6.80
2019-02-20T00:38:37.504Z,7.50
2019-02-20T00:41:04.955Z,6.72
2019-02-20T00:43:32.824Z,6.57
2019-02-20T00:46:02.726Z,5.60
2019-02-20T00:48:36.864Z,6.12
2019-02-20T00:51:04.803Z,6.80
2019-02-20T00:53:34.314Z,7.32
2019-02-20T00:56:01.745Z,6.70
2019-02-20T00:58:29.164Z,7.00
2019-02-20T01:00:56.554Z,7.43
2019-02-20T01:03:24.669Z,6.05
2019-02-20T01:05:52.081Z,7.53
2019-02-20T01:08:19.665Z,7.00
2019-02-20T01:10:47.081Z,7.75
2019-02-20T01:13:14.492Z,6.82
2019-02-20T01:15:41.925Z,4.93
2019-02-20T01:18:09.399Z,5.53
2019-02-20T01:20:36.880Z,7.22
2019-02-20T01:23:04.274Z,6.40
2019-02-20T01:25:31.712Z,7.07
2019-02-20T01:27:59.094Z,6.10
2019-02-20T01:30:26.534Z,7.20
2019-02-20T01:32:53.961Z,6.80
2019-02-20T01:35:21.430Z,6.18
2019-02-20T01:37:48.989Z,6.20
2019-02-20T01:40:16.383Z,8.90
2019-02-20T01:42:43.871Z,8.52
2019-02-20T01:45:11.326Z,7.35
2019-02-20T01:47:38.732Z,8.55
2019-02-20T01:50:06.231Z,8.68
2019-02-20T01:52:33.639Z,7.90
2019-02-20T01:55:01.101Z,8.82
2019-02-20T01:57:28.559Z,9.05
2019-02-20T01:59:56.145Z,9.15
2019-02-20T02:02:23.599Z,8.15
2019-02-20T02:04:51.407Z,7.32
2019-02-20T02:07:18.812Z,8.40
2019-02-20T02:09:46.283Z,7.78
2019-02-20T02:12:13.712Z,6.68
2019-02-20T02:14:41.139Z,9.50
2019-02-20T02:17:08.568Z,8.27
2019-02-20T02:19:35.987Z,8.65
2019-02-20T02:22:03.414Z,7.15
2019-02-20T02:24:30.839Z,6.93
2019-02-20T02:26:58.726Z,9.07
2019-02-20T02:29:26.110Z,8.05
2019-02-20T02:31:53.541Z,6.95
2019-02-20T02:34:21.947Z,7.78
2019-02-20T02:36:49.508Z,7.32
2019-02-20T02:39:17.013Z,7.12
2019-02-20T02:41:44.910Z,8.35
2019-02-20T02:44:11.941Z,9.50
2019-02-20T02:46:39.395Z,7.10
2019-02-20T02:49:07.040Z,6.68
2019-02-20T02:51:34.421Z,5.45
2019-02-20T02:54:01.983Z,6.47
2019-02-20T02:56:29.385Z,6.97
2019-02-20T02:58:56.800Z,6.68
2019-02-20T03:01:24.245Z,6.32
2019-02-20T03:03:51.648Z,7.90
2019-02-20T03:06:19.059Z,8.02
2019-02-20T03:08:46.471Z,6.43
2019-02-20T03:11:13.865Z,6.87
2019-02-20T03:13:41.433Z,7.53
2019-02-20T03:16:08.819Z,6.47
2019-02-20T03:18:36.346Z,7.15
2019-02-20T03:21:03.781Z,6.85
2019-02-20T03:23:39.799Z,6.55
2019-02-20T03:25:58.624Z,7.30
2019-02-20T03:28:26.048Z,7.12
2019-02-20T03:30:53.467Z,5.95
2019-02-20T03:33:21.047Z,8.38
2019-02-20T03:35:48.454Z,6.45
2019-02-20T03:38:15.873Z,9.45
2019-02-20T03:40:43.271Z,8.35
2019-02-20T03:43:10.715Z,7.53
2019-02-20T03:45:38.229Z,6.85
2019-02-20T03:48:05.632Z,7.18
2019-02-20T03:50:33.027Z,7.18
2019-02-20T03:53:00.718Z,7.30
2019-02-20T03:55:28.122Z,9.40
2019-02-20T03:57:55.524Z,7.10
2019-02-20T04:00:22.960Z,7.40
2019-02-20T04:02:50.403Z,8.10
2019-02-20T04:05:17.846Z,7.85
2019-02-20T04:07:45.249Z,9.57
2019-02-20T04:10:13.020Z,7.82
2019-02-20T04:12:40.616Z,7.12
2019-02-20T04:15:08.054Z,6.72
2019-02-20T04:17:35.537Z,8.48
2019-02-20T04:20:02.928Z,7.40
2019-02-20T04:22:30.343Z,6.15
2019-02-20T04:24:57.757Z,7.80
2019-02-20T04:27:25.162Z,7.15
2019-02-20T04:29:52.645Z,6.07
2019-02-20T04:32:20.069Z,6.37
2019-02-20T04:34:47.490Z,8.00
2019-02-20T04:37:14.990Z,7.68
2019-02-20T04:39:43.244Z,6.90
2019-02-20T04:42:11.100Z,8.85
2019-02-20T04:44:38.513Z,6.85
2019-02-20T04:47:06.050Z,8.55
2019-02-20T04:49:33.436Z,6.10
2019-02-20T04:52:01.099Z,6.82
2019-02-20T04:54:28.499Z,6.78
2019-02-20T04:56:56.079Z,8.13
2019-02-20T04:59:23.468Z,7.28
2019-02-20T05:01:50.884Z,8.15
2019-02-20T05:04:18.315Z,7.15
2019-02-20T05:06:45.717Z,6.68
2019-02-20T05:09:13.111Z,7.55
2019-02-20T05:11:40.525Z,9.77
2019-02-20T05:14:07.961Z,8.40
2019-02-20T05:16:35.385Z,10.35
2019-02-20T05:19:02.994Z,9.73
2019-02-20T05:21:30.396Z,8.23
2019-02-20T05:23:57.780Z,8.82
2019-02-20T05:26:25.219Z,7.35
2019-02-20T05:28:52.615Z,9.23
2019-02-20T05:31:20.087Z,8.10
2019-02-20T05:33:47.529Z,8.70
2019-02-20T05:36:14.954Z,9.23
2019-02-20T05:38:42.671Z,9.30
2019-02-20T05:41:10.113Z,9.23
2019-02-20T05:43:37.548Z,8.75
2019-02-20T05:46:04.988Z,8.70
2019-02-20T05:48:32.429Z,15.68
2019-02-20T05:50:59.823Z,9.50
2019-02-20T05:53:27.299Z,10.05
2019-02-20T05:55:54.717Z,8.40
2019-02-20T05:58:22.142Z,10.98
2019-02-20T06:00:49.973Z,7.60
2019-02-20T06:03:17.355Z,7.55
2019-02-20T06:05:44.801Z,10.07
2019-02-20T06:08:12.206Z,8.32
2019-02-20T06:10:39.601Z,9.02
2019-02-20T06:13:07.253Z,7.15
2019-02-20T06:15:34.648Z,7.65
2019-02-20T06:18:02.058Z,8.40
2019-02-20T06:20:29.456Z,8.40
2019-02-20T06:22:56.866Z,9.70
2019-02-20T06:25:24.273Z,7.90
2019-02-20T06:27:51.694Z,7.37
2019-02-20T06:30:19.106Z,9.07
2019-02-20T06:32:46.511Z,8.50
2019-02-20T06:35:13.964Z,8.05
2019-02-20T06:37:41.367Z,7.90
2019-02-20T06:40:08.785Z,7.50
2019-02-20T06:42:36.945Z,8.15
2019-02-20T06:45:05.032Z,7.47
2019-02-20T06:47:32.475Z,7.20
2019-02-20T06:50:01.194Z,7.65
2019-02-20T06:52:27.397Z,8.85
2019-02-20T06:54:54.806Z,7.00
2019-02-20T06:57:22.612Z,9.70
2019-02-20T06:59:50.174Z,9.98
2019-02-20T07:02:17.582Z,7.50
2019-02-20T07:07:46.573Z,17.85
2019-02-20T07:10:19.823Z,10.23
2019-02-20T07:12:48.140Z,8.65
2019-02-20T07:15:35.162Z,9.60
2019-02-20T07:18:05.200Z,9.48
2019-02-20T07:20:42.028Z,11.00
2019-02-20T07:26:24.866Z,18.52
2019-02-20T07:29:05.907Z,9.02
2019-02-20T07:31:33.314Z,8.25
2019-02-20T07:34:00.863Z,11.15
2019-02-20T07:36:28.315Z,9.68
2019-02-20T07:38:55.949Z,11.50
2019-02-20T07:41:23.510Z,8.75
2019-02-20T07:43:50.923Z,11.93
2019-02-20T07:46:18.366Z,10.07
2019-02-20T07:48:45.800Z,10.18
2019-02-20T07:51:14.867Z,10.10
2019-02-20T07:53:40.770Z,10.43
2019-02-20T07:56:08.280Z,11.20
2019-02-20T07:58:35.667Z,8.63
2019-02-20T08:01:03.123Z,11.82
2019-02-20T08:03:30.550Z,10.13
2019-02-20T08:05:58.001Z,10.32
2019-02-20T08:08:25.465Z,10.05
2019-02-20T08:10:52.881Z,11.25
2019-02-20T08:13:20.361Z,10.25
2019-02-20T08:15:47.763Z,10.38
2019-02-20T08:18:15.240Z,11.20
2019-02-20T08:20:42.862Z,9.88
2019-02-20T08:23:10.250Z,12.77
2019-02-20T08:25:37.773Z,11.20
2019-02-20T08:28:05.220Z,10.80
2019-02-20T08:30:32.798Z,10.43
2019-02-20T08:33:00.202Z,11.20
2019-02-20T08:35:27.635Z,9.15
2019-02-20T08:37:55.083Z,10.05
2019-02-20T08:40:22.492Z,8.68
2019-02-20T08:42:49.915Z,11.10
2019-02-20T08:45:17.318Z,11.05
2019-02-20T08:47:44.782Z,9.98
2019-02-20T08:50:13.022Z,11.20
2019-02-20T08:52:40.443Z,15.20
2019-02-20T08:55:07.865Z,11.27
2019-02-20T09:00:02.262Z,12.43
2019-02-20T09:02:29.987Z,12.10
2019-02-20T09:07:24.549Z,13.90
2019-02-20T09:09:51.964Z,13.32
2019-02-20T09:12:19.454Z,12.90
2019-02-20T09:14:46.992Z,14.98
2019-02-20T09:17:14.512Z,13.07
2019-02-20T09:19:42.646Z,14.23
2019-02-20T09:22:10.050Z,14.38
2019-02-20T09:24:37.465Z,12.85
2019-02-20T09:27:04.898Z,12.05
2019-02-20T09:29:32.351Z,12.70
2019-02-20T09:31:59.779Z,13.98
2019-02-20T09:34:27.216Z,14.50
2019-02-20T09:36:54.653Z,10.15
2019-02-20T09:39:33.085Z,13.35
2019-02-20T09:42:00.546Z,14.27
2019-02-20T09:44:28.418Z,12.27
2019-02-20T09:46:55.829Z,13.00
2019-02-20T09:49:23.287Z,14.18
2019-02-20T09:51:50.755Z,13.10
2019-02-20T09:54:18.219Z,14.27
2019-02-20T09:56:45.700Z,15.02
2019-02-20T09:59:13.102Z,14.23
2019-02-20T10:01:40.601Z,14.68
2019-02-20T10:04:08.016Z,14.95
2019-02-20T10:06:35.439Z,15.05
2019-02-20T10:09:02.882Z,15.82
2019-02-20T10:11:30.302Z,13.15
2019-02-20T10:13:57.717Z,16.20
2019-02-20T10:16:25.122Z,15.43
2019-02-20T10:18:52.529Z,15.30
2019-02-20T10:21:19.951Z,16.55
2019-02-20T10:23:47.501Z,17.65
2019-02-20T10:26:15.619Z,14.55
2019-02-20T10:28:43.039Z,15.00
2019-02-20T10:31:10.461Z,14.60
2019-02-20T10:33:37.919Z,16.12
2019-02-20T10:36:05.325Z,16.40
2019-02-20T10:38:32.955Z,17.73
2019-02-20T10:41:00.430Z,14.23
2019-02-20T10:43:27.885Z,14.87
2019-02-20T10:45:55.293Z,12.95
2019-02-20T10:48:22.704Z,15.05
2019-02-20T10:50:50.114Z,13.05
2019-02-20T10:53:18.452Z,14.20
2019-02-20T11:17:48.880Z,12.13
2019-02-20T11:20:16.454Z,14.50
2019-02-20T11:25:10.854Z,14.47
2019-02-20T11:30:08.175Z,12.00
2019-02-20T11:32:35.611Z,11.18
2019-02-20T11:44:51.090Z,11.80
2019-02-20T11:47:18.915Z,13.23
2019-02-20T11:49:46.351Z,10.57
2019-02-20T11:52:13.774Z,9.95
2019-02-20T11:54:41.213Z,11.20
2019-02-20T11:57:08.671Z,12.68
2019-02-20T12:02:03.440Z,9.77
2019-02-20T12:04:31.963Z,11.88
2019-02-20T12:06:59.399Z,10.73
2019-02-20T12:09:26.855Z,10.57
2019-02-20T12:11:54.275Z,12.10
2019-02-20T12:14:24.287Z,10.80
2019-02-20T12:16:50.323Z,8.25
2019-02-20T12:19:17.738Z,8.18
2019-02-20T12:21:45.140Z,9.93
2019-02-20T12:24:12.648Z,12.07
2019-02-20T12:26:40.055Z,9.90
2019-02-20T12:29:07.500Z,10.80
2019-02-20T12:31:34.911Z,11.05
2019-02-20T12:34:02.673Z,9.90
2019-02-20T12:36:30.079Z,10.20
2019-02-20T12:38:57.545Z,11.48
2019-02-20T12:41:25.020Z,12.75
2019-02-20T12:43:52.459Z,12.10
2019-02-20T12:46:19.965Z,10.48
2019-02-20T12:48:47.384Z,13.52
2019-02-20T12:51:14.831Z,9.27
2019-02-20T12:53:43.614Z,8.73
2019-02-20T12:56:10.303Z,13.05
2019-02-20T12:58:38.387Z,9.52
2019-02-20T13:01:04.744Z,9.93
2019-02-20T13:05:59.572Z,9.75
2019-02-20T13:08:27.011Z,10.70
2019-02-20T13:10:54.501Z,9.60
2019-02-20T13:13:21.927Z,10.38
2019-02-20T13:15:49.384Z,9.57
2019-02-20T13:18:16.887Z,10.75
2019-02-20T13:20:44.237Z,10.90
2019-02-20T13:23:11.662Z,10.70
2019-02-20T13:25:39.198Z,10.88
2019-02-20T13:30:40.501Z,9.95
2019-02-20T13:33:08.069Z,10.65
2019-02-20T13:35:35.648Z,11.60
2019-02-20T13:38:03.206Z,10.88
2019-02-20T13:40:30.612Z,10.98
2019-02-20T13:42:58.048Z,7.55
2019-02-20T13:45:25.648Z,9.80
2019-02-20T13:47:53.082Z,11.02
2019-02-20T13:50:20.572Z,10.55
2019-02-20T13:52:52.221Z,9.75
2019-02-20T13:55:15.457Z,11.00
2019-02-20T14:00:09.807Z,10.88
2019-02-20T14:02:37.210Z,11.90
2019-02-20T14:05:05.501Z,11.52
2019-02-20T14:07:32.998Z,13.05
2019-02-20T14:10:00.413Z,13.82
2019-02-20T14:49:13.499Z,17.00
2019-02-20T14:51:40.957Z,17.80
2019-02-20T15:08:50.634Z,15.85
2019-02-20T15:11:18.063Z,15.00
2019-02-20T15:13:45.480Z,16.10
2019-02-20T15:16:12.911Z,18.70
2019-02-20T15:48:05.546Z,14.38
2019-02-20T15:50:32.953Z,15.00
2019-02-20T15:53:00.382Z,16.37
2019-02-20T15:55:27.992Z,15.70
2019-02-20T15:57:55.408Z,20.10
2019-02-20T16:00:22.933Z,18.30
2019-02-20T16:02:50.363Z,15.55
2019-02-20T16:05:17.820Z,19.05
2019-02-20T16:07:45.303Z,16.10
2019-02-20T16:12:39.988Z,13.35
2019-02-20T16:17:34.766Z,11.20
2019-02-20T16:22:29.603Z,12.07
2019-02-20T16:24:57.090Z,11.57
2019-02-20T16:29:51.525Z,10.20
2019-02-20T16:32:19.095Z,9.75
2019-02-20T16:34:46.912Z,11.70
2019-02-20T16:37:14.316Z,9.45
2019-02-20T16:39:41.798Z,11.27
2019-02-20T16:42:09.317Z,10.10
2019-02-20T16:44:36.751Z,9.27
2019-02-20T16:47:04.159Z,7.95
2019-02-20T16:49:31.642Z,8.77
2019-02-20T16:51:59.123Z,8.43
2019-02-20T16:54:27.526Z,6.60
2019-02-20T16:56:54.996Z,6.30
2019-02-20T16:59:22.508Z,8.18
2019-02-20T17:01:50.007Z,8.82
2019-02-20T17:04:17.435Z,9.25
2019-02-20T17:06:44.886Z,6.80
2019-02-20T17:09:12.539Z,6.90
2019-02-20T17:11:40.091Z,8.20
2019-02-20T17:14:07.561Z,5.18
2019-02-20T17:16:35.024Z,5.62
2019-02-20T17:19:02.463Z,6.15
2019-02-20T17:21:29.903Z,4.50
2019-02-20T17:23:57.325Z,5.72
2019-02-20T17:26:25.191Z,7.30
2019-02-20T17:28:52.612Z,3.90
2019-02-20T17:31:20.495Z,4.62
2019-02-20T17:33:48.044Z,6.47
2019-02-20T17:36:15.485Z,5.28
2019-02-20T17:38:43.079Z,4.80
2019-02-20T17:41:10.496Z,6.50
2019-02-20T17:43:38.051Z,5.65
2019-02-20T17:46:05.532Z,6.10
2019-02-20T17:48:32.966Z,6.20
2019-02-20T17:51:00.435Z,6.60
2019-02-20T17:53:27.903Z,8.57
2019-02-20T17:55:55.312Z,6.47
2019-02-20T17:58:22.755Z,5.50
2019-02-20T18:00:50.304Z,5.93
2019-02-20T18:03:17.868Z,5.18
2019-02-20T18:05:45.393Z,6.65
2019-02-20T18:08:12.842Z,5.68
2019-02-20T18:10:40.371Z,7.72
2019-02-20T18:13:07.852Z,5.47
2019-02-20T18:15:35.363Z,6.55
2019-02-20T18:18:02.821Z,5.78
2019-02-20T18:20:30.305Z,6.07
2019-02-20T18:22:57.745Z,7.20
2019-02-20T18:25:25.236Z,7.10
2019-02-20T18:27:52.825Z,7.12
2019-02-20T18:30:20.397Z,6.20
2019-02-20T18:32:47.835Z,6.43
2019-02-20T18:35:16.093Z,6.78
2019-02-20T18:37:43.587Z,8.25
2019-02-20T18:40:11.119Z,7.70
2019-02-20T18:42:38.655Z,7.95
2019-02-20T18:45:06.145Z,8.00
2019-02-20T18:47:33.704Z,8.95
2019-02-20T18:50:01.187Z,8.15
2019-02-20T18:52:31.893Z,7.82
2019-02-20T18:55:05.629Z,8.02
2019-02-20T18:57:26.766Z,7.65
2019-02-20T18:59:54.190Z,7.43
2019-02-20T19:02:21.696Z,7.12
2019-02-20T19:04:49.188Z,6.60
2019-02-20T19:07:16.596Z,7.20
2019-02-20T19:09:44.168Z,9.55
2019-02-20T19:12:18.454Z,8.18
2019-02-20T19:14:46.098Z,8.75
2019-02-20T19:17:24.491Z,7.45
2019-02-20T19:23:20.277Z,13.93
2019-02-20T19:26:09.239Z,8.75
2019-02-20T19:28:44.312Z,9.45
2019-02-20T19:31:30.195Z,7.72
2019-02-20T19:34:04.253Z,9.32
2019-02-20T19:36:51.647Z,8.18
2019-02-20T19:39:20.931Z,7.03
2019-02-20T19:42:00.312Z,7.10
2019-02-20T19:44:31.793Z,8.52
2019-02-20T19:47:07.503Z,9.50
2019-02-20T19:49:50.760Z,7.07
2019-02-20T19:52:27.018Z,8.82
2019-02-20T19:55:01.827Z,8.15
2019-02-20T19:57:59.003Z,9.27
2019-02-20T20:00:30.863Z,8.68
2019-02-20T20:03:06.559Z,7.75
2019-02-20T20:05:54.498Z,8.55
2019-02-20T20:08:32.935Z,8.70
2019-02-20T20:14:04.584Z,16.25
2019-02-20T20:16:33.801Z,8.18
2019-02-20T20:19:13.734Z,7.78
2019-02-20T20:21:47.367Z,8.15
2019-02-20T20:27:28.586Z,14.60
2019-02-20T20:30:09.762Z,9.93
2019-02-20T20:32:56.025Z,9.60
2019-02-20T20:38:31.991Z,15.30
2019-02-20T20:41:05.075Z,10.10
2019-02-20T20:46:46.268Z,17.98
2019-02-20T20:49:19.043Z,11.75
2019-02-20T20:55:00.788Z,19.25
2019-02-20T20:57:33.121Z,8.98
2019-02-20T21:00:12.185Z,10.52
2019-02-20T21:02:40.199Z,8.57
2019-02-20T21:05:19.401Z,8.30
2019-02-20T21:07:51.397Z,7.60
2019-02-20T21:10:34.322Z,9.30
2019-02-20T21:13:24.251Z,7.95
2019-02-20T21:18:58.826Z,13.65
2019-02-20T21:24:44.707Z,14.63
2019-02-20T21:30:20.634Z,14.85
2019-02-20T21:32:52.650Z,8.50
2019-02-20T21:35:20.295Z,9.93
2019-02-20T21:37:56.191Z,6.82
2019-02-20T21:40:27.234Z,8.52
2019-02-20T21:45:56.868Z,16.00
2019-02-20T21:48:29.977Z,8.50
2019-02-20T21:51:03.026Z,7.95
2019-02-20T21:53:34.777Z,7.50
2019-02-20T21:56:02.631Z,9.15
2019-02-20T21:58:33.231Z,9.40
2019-02-20T22:01:23.859Z,8.63
2019-02-20T22:07:05.951Z,14.70
2019-02-20T22:09:34.143Z,9.90
2019-02-20T22:12:16.922Z,8.85
2019-02-20T22:14:47.330Z,8.75
2019-02-20T22:17:19.522Z,7.70
2019-02-20T22:23:05.296Z,16.52
2019-02-20T22:25:44.204Z,7.57
2019-02-20T22:31:35.896Z,16.17
2019-02-20T22:34:16.603Z,8.52
2019-02-20T22:36:55.846Z,9.25
2019-02-20T22:39:46.705Z,8.60
2019-02-20T22:42:38.578Z,8.82
2019-02-20T22:45:19.594Z,9.07
2019-02-20T22:50:57.827Z,16.05
2019-02-20T22:56:43.317Z,17.25
2019-02-20T22:59:17.461Z,9.75
2019-02-20T23:04:40.561Z,13.75
2019-02-20T23:07:24.752Z,8.30
2019-02-20T23:09:58.709Z,7.37
2019-02-20T23:12:27.839Z,7.30
2019-02-20T23:14:57.857Z,8.35
2019-02-20T23:17:27.176Z,8.48
2019-02-20T23:19:52.898Z,7.65
2019-02-20T23:22:20.288Z,10.13
2019-02-20T23:24:47.694Z,9.30
2019-02-20T23:27:15.129Z,8.15
2019-02-20T23:29:42.724Z,8.10
2019-02-20T23:32:10.108Z,6.35
2019-02-20T23:34:37.527Z,8.57
2019-02-20T23:37:04.935Z,8.77
2019-02-20T23:39:32.337Z,8.80
2019-02-20T23:41:59.748Z,9.50
2019-02-20T23:44:27.183Z,8.18
2019-02-20T23:46:54.717Z,8.48
2019-02-20T23:49:22.190Z,8.07
2019-02-20T23:51:49.651Z,7.00
2019-02-20T23:54:17.096Z,7.05
2019-02-20T23:56:44.515Z,7.50
2019-02-20T23:59:13.794Z,7.47
